createdAt,value
2019-05-19T00:01:12.012Z,75.23
2019-05-19T00:03:41.101Z,73.97
2019-05-19T00:06:10.688Z,73.77
2019-05-19T00:08:39.682Z,74.63
2019-05-19T00:11:08.780Z,75.20
2019-05-19T00:13:37.812Z,79.73
2019-05-19T00:16:06.860Z,74.17
2019-05-19T00:18:35.933Z,76.83
2019-05-19T00:21:04.977Z,79.63
2019-05-19T00:23:34.014Z,78.90
2019-05-19T00:26:03.046Z,78.17
2019-05-19T00:28:32.028Z,77.57
2019-05-19T00:31:01.151Z,79.23
2019-05-19T00:33:30.155Z,75.63
2019-05-19T00:35:59.191Z,71.60
2019-05-19T00:38:28.540Z,71.27
2019-05-19T00:40:57.537Z,70.20
2019-05-19T00:43:26.680Z,75.27
2019-05-19T00:46:17.996Z,77.20
2019-05-19T00:48:47.190Z,69.47
2019-05-19T00:51:16.437Z,72.97
2019-05-19T00:53:45.518Z,71.80
2019-05-19T00:56:14.896Z,69.87
2019-05-19T00:58:44.364Z,71.10
2019-05-19T01:01:13.448Z,70.70
2019-05-19T01:03:42.560Z,69.10
2019-05-19T01:06:11.694Z,73.17
2019-05-19T01:08:40.819Z,70.87
2019-05-19T01:11:09.925Z,67.77
2019-05-19T01:13:39.120Z,67.73
2019-05-19T01:16:08.215Z,73.87
2019-05-19T01:18:37.366Z,72.03
2019-05-19T01:21:06.458Z,70.00
2019-05-19T01:23:35.532Z,68.97
2019-05-19T01:26:05.048Z,72.97
2019-05-19T01:28:34.120Z,69.67
2019-05-19T01:31:03.189Z,73.20
2019-05-19T01:33:33.899Z,65.47
2019-05-19T01:36:03.056Z,67.63
2019-05-19T01:38:32.223Z,68.37
2019-05-19T01:41:01.415Z,68.63
2019-05-19T01:43:31.695Z,69.73
2019-05-19T01:46:08.188Z,72.27
2019-05-19T01:48:37.440Z,70.93
2019-05-19T01:51:25.651Z,66.83
2019-05-19T01:53:54.912Z,70.63
2019-05-19T01:56:23.931Z,68.90
2019-05-19T01:58:53.002Z,70.83
2019-05-19T02:01:22.071Z,65.77
2019-05-19T02:03:51.144Z,75.13
2019-05-19T02:06:20.309Z,79.43
2019-05-19T02:08:49.432Z,79.33
2019-05-19T02:11:18.539Z,90.93
2019-05-19T02:13:47.647Z,85.63
2019-05-19T02:16:16.798Z,85.60
2019-05-19T02:18:46.063Z,83.03
2019-05-19T02:21:15.135Z,81.13
2019-05-19T02:23:44.330Z,85.80
2019-05-19T02:26:13.358Z,83.43
2019-05-19T02:28:42.464Z,81.03
2019-05-19T02:31:11.545Z,81.43
2019-05-19T02:33:40.645Z,82.70
2019-05-19T02:36:09.707Z,86.93
2019-05-19T02:38:38.807Z,89.53
2019-05-19T02:41:09.985Z,81.53
2019-05-19T02:44:05.847Z,84.17
2019-05-19T02:46:35.649Z,80.53
2019-05-19T02:49:05.910Z,79.37
2019-05-19T02:51:35.890Z,78.00
2019-05-19T02:54:05.946Z,73.73
2019-05-19T02:57:21.867Z,78.50
2019-05-19T02:59:51.347Z,73.67
2019-05-19T03:02:42.059Z,69.03
2019-05-19T03:05:11.525Z,76.27
2019-05-19T03:07:40.722Z,71.57
2019-05-19T03:10:09.917Z,65.53
2019-05-19T03:12:39.069Z,72.37
2019-05-19T03:15:08.389Z,75.07
2019-05-19T03:17:37.419Z,70.00
2019-05-19T03:20:06.637Z,68.67
2019-05-19T03:22:35.751Z,70.23
2019-05-19T03:25:05.585Z,70.80
2019-05-19T03:27:34.763Z,67.63
2019-05-19T03:30:30.980Z,70.27
2019-05-19T03:33:21.932Z,66.53
2019-05-19T03:35:51.073Z,71.07
2019-05-19T03:38:20.188Z,76.77
2019-05-19T03:40:49.265Z,68.87
2019-05-19T03:43:18.204Z,68.27
2019-05-19T03:45:47.285Z,71.10
2019-05-19T03:48:35.388Z,68.20
2019-05-19T03:51:04.517Z,58.90
2019-05-19T03:53:33.703Z,62.50
2019-05-19T03:56:06.007Z,62.77
2019-05-19T03:58:35.077Z,58.07
2019-05-19T04:01:04.173Z,56.97
2019-05-19T04:03:33.292Z,60.00
2019-05-19T04:06:02.563Z,55.40
2019-05-19T04:09:17.864Z,56.70
2019-05-19T04:12:01.769Z,54.83
2019-05-19T04:14:30.886Z,56.87
2019-05-19T04:17:00.062Z,54.90
2019-05-19T04:19:29.175Z,51.93
2019-05-19T04:21:58.258Z,48.23
2019-05-19T04:24:27.531Z,52.70
2019-05-19T04:26:56.716Z,54.33
2019-05-19T04:29:25.675Z,50.37
2019-05-19T04:31:54.710Z,53.63
2019-05-19T04:34:42.980Z,49.33
2019-05-19T04:37:34.389Z,47.10
2019-05-19T04:40:20.563Z,47.57
2019-05-19T04:43:31.954Z,48.10
2019-05-19T04:46:02.904Z,52.30
2019-05-19T04:48:31.911Z,51.50
2019-05-19T04:51:01.002Z,52.77
2019-05-19T04:53:29.983Z,50.10
2019-05-19T04:56:19.785Z,51.37
2019-05-19T04:58:52.433Z,51.87
2019-05-19T05:01:21.494Z,51.00
2019-05-19T05:04:09.736Z,52.60
2019-05-19T05:06:38.988Z,51.03
2019-05-19T05:09:08.068Z,49.53
2019-05-19T05:11:37.344Z,53.03
2019-05-19T05:14:06.463Z,51.20
2019-05-19T05:17:00.731Z,49.20
2019-05-19T05:19:32.525Z,52.47
2019-05-19T05:22:01.940Z,49.13
2019-05-19T05:24:31.152Z,51.23
2019-05-19T05:27:00.269Z,50.10
2019-05-19T05:29:29.245Z,53.23
2019-05-19T05:31:58.363Z,51.30
2019-05-19T05:34:27.485Z,50.27
2019-05-19T05:36:56.683Z,49.23
2019-05-19T05:39:25.853Z,49.43
2019-05-19T05:41:54.946Z,51.37
2019-05-19T05:44:24.221Z,51.03
2019-05-19T05:46:53.428Z,48.57
2019-05-19T05:49:22.537Z,49.63
2019-05-19T05:51:51.668Z,52.67
2019-05-19T05:54:45.795Z,50.30
2019-05-19T05:57:17.935Z,51.97
2019-05-19T05:59:46.920Z,51.23
2019-05-19T06:03:12.242Z,49.43
2019-05-19T06:06:13.376Z,52.33
2019-05-19T06:12:10.734Z,49.80
2019-05-19T06:15:09.445Z,49.53
2019-05-19T06:17:38.570Z,48.70
2019-05-19T06:20:26.810Z,49.33
2019-05-19T06:22:57.247Z,48.67
2019-05-19T06:25:45.621Z,46.23
2019-05-19T06:28:14.694Z,48.53
2019-05-19T06:33:52.268Z,46.80
2019-05-19T06:39:31.247Z,46.27
2019-05-19T06:42:01.883Z,45.10
2019-05-19T06:44:50.111Z,45.20
2019-05-19T06:47:46.351Z,46.07
2019-05-19T06:50:34.852Z,42.63
2019-05-19T06:53:21.703Z,43.67
2019-05-19T06:55:51.267Z,45.07
2019-05-19T06:58:20.517Z,42.77
2019-05-19T07:01:11.706Z,42.70
2019-05-19T07:04:08.987Z,43.80
2019-05-19T07:06:54.255Z,44.60
2019-05-19T07:13:29.596Z,43.70
2019-05-19T07:16:10.194Z,42.43
2019-05-19T07:18:39.377Z,40.33
2019-05-19T07:21:08.496Z,40.03
2019-05-19T07:23:37.693Z,43.83
2019-05-19T07:29:24.519Z,42.37
2019-05-19T07:31:56.759Z,44.63
2019-05-19T07:34:28.861Z,44.00
2019-05-19T07:37:21.193Z,41.70
2019-05-19T07:43:14.224Z,40.43
2019-05-19T07:45:51.768Z,40.93
2019-05-19T07:48:49.116Z,40.33
2019-05-19T07:51:39.986Z,41.13
2019-05-19T07:54:23.401Z,40.50
2019-05-19T07:57:02.672Z,38.80
2019-05-19T07:59:51.928Z,39.13
2019-05-19T08:02:40.761Z,39.53
2019-05-19T08:05:04.833Z,39.43
2019-05-19T08:07:52.963Z,37.67
2019-05-19T08:10:21.985Z,40.07
2019-05-19T08:12:50.959Z,39.33
2019-05-19T08:15:39.072Z,42.63
2019-05-19T08:18:08.173Z,41.53
2019-05-19T08:20:37.309Z,39.67
2019-05-19T08:23:06.430Z,40.47
2019-05-19T08:25:35.580Z,41.90
2019-05-19T08:28:08.879Z,42.43
2019-05-19T08:30:54.796Z,40.17
2019-05-19T08:34:16.425Z,38.43
2019-05-19T08:36:36.349Z,39.73
2019-05-19T08:39:27.498Z,43.67
2019-05-19T08:42:20.350Z,39.27
2019-05-19T08:44:49.355Z,39.47
2019-05-19T08:47:48.986Z,40.37
2019-05-19T08:50:19.907Z,40.53
2019-05-19T08:52:49.172Z,38.23
2019-05-19T08:55:37.506Z,38.17
2019-05-19T08:58:27.557Z,39.07
2019-05-19T09:00:56.747Z,38.97
2019-05-19T09:03:25.875Z,37.17
2019-05-19T09:06:14.263Z,40.87
2019-05-19T09:08:47.003Z,35.40
2019-05-19T09:11:16.185Z,37.37
2019-05-19T09:13:45.524Z,39.47
2019-05-19T09:16:33.711Z,37.10
2019-05-19T09:19:02.812Z,37.87
2019-05-19T09:21:31.948Z,39.07
2019-05-19T09:24:01.091Z,37.77
2019-05-19T09:26:30.184Z,37.50
2019-05-19T09:29:18.435Z,37.37
2019-05-19T09:31:47.512Z,40.10
2019-05-19T09:34:35.760Z,39.00
2019-05-19T09:37:04.905Z,37.77
2019-05-19T09:39:34.131Z,36.50
2019-05-19T09:42:03.302Z,36.20
2019-05-19T09:44:51.608Z,37.30
2019-05-19T09:47:39.839Z,34.13
2019-05-19T09:50:33.393Z,36.40
2019-05-19T09:53:21.541Z,37.33
2019-05-19T09:55:50.636Z,37.10
2019-05-19T09:58:20.296Z,37.67
2019-05-19T10:00:49.480Z,34.23
2019-05-19T10:03:37.725Z,35.63
2019-05-19T10:06:09.894Z,35.53
2019-05-19T10:08:47.796Z,37.63
2019-05-19T10:12:01.151Z,36.87
2019-05-19T10:14:58.429Z,36.17
2019-05-19T10:20:53.752Z,34.00
2019-05-19T10:23:46.333Z,34.30
2019-05-19T10:26:26.413Z,33.40
2019-05-19T10:28:55.540Z,32.80
2019-05-19T10:31:43.818Z,32.93
2019-05-19T10:34:31.991Z,35.13
2019-05-19T10:37:29.081Z,31.00
2019-05-19T10:40:26.952Z,32.90
2019-05-19T10:42:59.319Z,34.83
2019-05-19T10:45:28.452Z,33.57
2019-05-19T10:47:57.545Z,32.03
2019-05-19T10:53:51.388Z,32.73
2019-05-19T10:56:37.192Z,33.67
2019-05-19T10:59:25.466Z,33.27
2019-05-19T11:04:49.711Z,32.87
2019-05-19T11:07:39.498Z,33.60
2019-05-19T11:10:20.745Z,34.87
2019-05-19T11:13:31.669Z,33.30
2019-05-19T11:16:00.791Z,34.20
2019-05-19T11:18:53.891Z,34.37
2019-05-19T11:24:19.168Z,31.30
2019-05-19T11:30:05.801Z,31.93
2019-05-19T11:33:11.585Z,32.13
2019-05-19T11:38:42.915Z,29.07
2019-05-19T11:44:32.606Z,31.73
2019-05-19T11:47:01.816Z,30.77
2019-05-19T11:49:30.838Z,29.87
2019-05-19T11:51:59.826Z,31.90
2019-05-19T11:54:28.839Z,30.37
2019-05-19T11:56:57.852Z,31.37
2019-05-19T11:59:46.060Z,28.77
2019-05-19T12:02:35.384Z,30.67
2019-05-19T12:05:04.832Z,30.57
2019-05-19T12:07:33.934Z,30.07
2019-05-19T12:10:02.995Z,30.77
2019-05-19T12:12:32.200Z,32.00
2019-05-19T12:15:01.354Z,33.50
2019-05-19T12:17:30.595Z,30.40
2019-05-19T12:19:59.717Z,30.73
2019-05-19T12:22:28.886Z,31.17
2019-05-19T12:24:58.000Z,30.63
2019-05-19T12:28:08.333Z,32.50
2019-05-19T12:30:39.155Z,32.00
2019-05-19T12:33:08.252Z,27.40
2019-05-19T12:35:37.476Z,27.23
2019-05-19T12:38:06.556Z,31.03
2019-05-19T12:40:35.645Z,28.97
2019-05-19T12:43:04.741Z,30.13
2019-05-19T12:45:33.967Z,27.33
2019-05-19T12:48:03.243Z,29.13
2019-05-19T12:50:32.254Z,30.13
2019-05-19T12:53:01.327Z,29.23
2019-05-19T12:55:30.548Z,30.43
2019-05-19T12:57:59.851Z,29.47
2019-05-19T13:00:48.130Z,29.67
2019-05-19T13:03:23.222Z,29.37
2019-05-19T13:06:18.218Z,29.30
2019-05-19T13:08:47.390Z,32.53
2019-05-19T13:11:16.544Z,28.93
2019-05-19T13:13:45.680Z,29.40
2019-05-19T13:16:33.871Z,29.50
2019-05-19T13:19:02.927Z,30.07
2019-05-19T13:21:32.166Z,30.70
2019-05-19T13:24:01.160Z,29.77
2019-05-19T13:26:30.233Z,30.23
2019-05-19T13:28:59.481Z,30.77
2019-05-19T13:31:28.558Z,30.93
2019-05-19T13:33:57.661Z,29.77
2019-05-19T13:36:50.166Z,30.97
2019-05-19T13:39:47.304Z,31.97
2019-05-19T13:42:16.588Z,32.13
2019-05-19T13:45:05.879Z,31.47
2019-05-19T13:48:39.136Z,32.67
2019-05-19T13:50:42.722Z,31.73
2019-05-19T13:53:11.876Z,30.93
2019-05-19T13:55:41.272Z,29.07
2019-05-19T13:58:29.830Z,30.17
2019-05-19T14:01:29.612Z,29.90
2019-05-19T14:04:14.825Z,29.77
2019-05-19T14:06:47.006Z,29.40
2019-05-19T14:09:20.335Z,27.73
2019-05-19T14:12:34.613Z,30.53
2019-05-19T14:15:30.128Z,31.77
2019-05-19T14:18:26.210Z,29.27
2019-05-19T14:20:55.465Z,31.30
2019-05-19T14:23:24.582Z,30.40
2019-05-19T14:25:53.721Z,29.23
2019-05-19T14:28:41.911Z,29.27
2019-05-19T14:31:14.656Z,30.27
2019-05-19T14:33:45.368Z,29.50
2019-05-19T14:36:14.446Z,29.80
2019-05-19T14:38:59.785Z,30.37
2019-05-19T14:41:33.610Z,29.27
2019-05-19T14:44:00.723Z,29.77
2019-05-19T14:46:49.030Z,28.33
2019-05-19T14:49:18.063Z,29.07
2019-05-19T14:51:47.187Z,29.57
2019-05-19T14:54:35.399Z,28.43
2019-05-19T14:57:04.457Z,30.30
2019-05-19T14:59:56.004Z,28.60
2019-05-19T15:02:25.088Z,30.83
2019-05-19T15:04:54.062Z,30.13
2019-05-19T15:07:23.141Z,31.73
2019-05-19T15:09:54.155Z,30.77
2019-05-19T15:12:42.165Z,32.20
2019-05-19T15:15:11.602Z,31.87
2019-05-19T15:17:59.950Z,33.67
2019-05-19T15:20:29.099Z,32.43
2019-05-19T15:23:30.153Z,32.77
2019-05-19T15:26:29.214Z,33.20
2019-05-19T15:29:12.269Z,33.57
2019-05-19T15:31:41.423Z,34.20
2019-05-19T15:34:10.549Z,34.20
2019-05-19T15:36:39.614Z,32.73
2019-05-19T15:39:27.836Z,34.17
2019-05-19T15:41:57.239Z,32.40
2019-05-19T15:44:54.303Z,32.83
2019-05-19T15:47:25.373Z,34.07
2019-05-19T15:50:13.668Z,33.90
2019-05-19T15:52:43.117Z,34.70
2019-05-19T15:55:12.212Z,33.13
2019-05-19T15:58:16.463Z,34.53
2019-05-19T16:00:59.352Z,34.13
2019-05-19T16:03:28.426Z,33.03
2019-05-19T16:05:57.489Z,32.27
2019-05-19T16:08:26.611Z,36.03
2019-05-19T16:10:55.839Z,35.23
2019-05-19T16:13:24.867Z,35.00
2019-05-19T16:15:53.932Z,34.47
2019-05-19T16:18:42.142Z,30.97
2019-05-19T16:21:11.165Z,29.60
2019-05-19T16:23:40.187Z,29.10
2019-05-19T16:26:09.263Z,35.13
2019-05-19T16:28:38.354Z,31.70
2019-05-19T16:31:07.413Z,33.33
2019-05-19T16:33:36.516Z,32.07
2019-05-19T16:36:24.637Z,39.07
2019-05-19T16:39:12.812Z,34.90
2019-05-19T16:41:41.908Z,30.50
2019-05-19T16:44:11.000Z,33.97
2019-05-19T16:46:40.089Z,34.47
2019-05-19T16:49:09.201Z,33.73
2019-05-19T16:51:38.521Z,30.97
2019-05-19T16:54:11.687Z,32.20
2019-05-19T16:56:40.800Z,30.77
2019-05-19T16:59:09.960Z,31.03
2019-05-19T17:01:39.135Z,31.93
2019-05-19T17:04:08.263Z,29.53
2019-05-19T17:06:37.388Z,30.23
2019-05-19T17:09:06.546Z,29.93
2019-05-19T17:11:54.779Z,28.77
2019-05-19T17:14:23.824Z,28.40
2019-05-19T17:16:52.955Z,28.73
2019-05-19T17:19:22.039Z,30.83
2019-05-19T17:21:51.209Z,27.60
2019-05-19T17:24:20.323Z,29.43
2019-05-19T17:26:49.301Z,30.47
2019-05-19T17:29:18.488Z,25.83
2019-05-19T17:31:47.754Z,30.43
2019-05-19T17:34:16.876Z,26.23
2019-05-19T17:36:45.874Z,26.03
2019-05-19T17:39:15.061Z,29.50
2019-05-19T17:41:44.145Z,27.70
2019-05-19T17:44:13.279Z,26.80
2019-05-19T17:46:42.337Z,26.40
2019-05-19T17:49:11.387Z,23.53
2019-05-19T17:51:40.485Z,28.03
2019-05-19T17:54:09.598Z,31.50
2019-05-19T17:56:58.271Z,27.07
2019-05-19T17:59:47.960Z,31.00
2019-05-19T18:02:17.051Z,31.20
2019-05-19T18:04:46.067Z,29.13
2019-05-19T18:07:15.143Z,28.07
2019-05-19T18:09:44.261Z,30.33
2019-05-19T18:12:14.085Z,30.17
2019-05-19T18:14:43.148Z,32.50
2019-05-19T18:17:12.323Z,30.00
2019-05-19T18:19:41.392Z,35.20
2019-05-19T18:22:10.405Z,33.47
2019-05-19T18:24:39.503Z,33.10
2019-05-19T18:27:08.644Z,37.70
2019-05-19T18:29:37.740Z,34.37
2019-05-19T18:32:06.865Z,33.20
2019-05-19T18:34:35.916Z,29.90
2019-05-19T18:37:05.051Z,34.70
2019-05-19T18:39:34.012Z,33.30
2019-05-19T18:42:03.159Z,35.20
2019-05-19T18:44:35.262Z,42.87
2019-05-19T18:47:04.493Z,40.87
2019-05-19T18:53:14.015Z,37.53
2019-05-19T18:57:19.134Z,34.70
2019-05-19T18:59:19.599Z,26.00
2019-05-19T19:02:27.236Z,25.07
2019-05-19T19:04:56.418Z,26.50
2019-05-19T19:07:44.595Z,25.97
2019-05-19T19:10:13.633Z,22.03
2019-05-19T19:12:42.781Z,27.10
2019-05-19T19:15:11.973Z,23.67
2019-05-19T19:17:41.109Z,24.60
2019-05-19T19:20:10.296Z,26.03
2019-05-19T19:22:39.472Z,19.80
2019-05-19T19:25:09.387Z,17.23
2019-05-19T19:27:57.621Z,18.40
2019-05-19T19:30:26.773Z,20.73
2019-05-19T19:32:55.927Z,20.47
2019-05-19T19:35:25.285Z,19.83
2019-05-19T19:37:54.444Z,19.73
2019-05-19T19:40:29.976Z,20.60
2019-05-19T19:43:00.148Z,23.03
2019-05-19T19:45:29.432Z,20.50
2019-05-19T19:47:58.589Z,22.37
2019-05-19T19:50:27.834Z,19.00
2019-05-19T19:52:57.153Z,23.13
2019-05-19T19:55:26.244Z,22.07
2019-05-19T19:57:55.440Z,21.70
2019-05-19T20:00:44.185Z,21.13
2019-05-19T20:03:13.554Z,25.80
2019-05-19T20:05:42.800Z,23.00
2019-05-19T20:08:21.482Z,22.73
2019-05-19T20:11:26.970Z,21.60
2019-05-19T20:14:20.454Z,22.40
2019-05-19T20:17:07.762Z,24.33
2019-05-19T20:19:36.860Z,20.80
2019-05-19T20:22:05.942Z,25.23
2019-05-19T20:24:35.063Z,22.33
2019-05-19T20:27:04.172Z,20.80
2019-05-19T20:29:52.343Z,27.10
2019-05-19T20:32:21.440Z,23.37
2019-05-19T20:34:50.560Z,26.03
2019-05-19T20:37:19.704Z,23.10
2019-05-19T20:39:48.909Z,22.50
2019-05-19T20:42:18.047Z,21.87
2019-05-19T20:44:47.169Z,22.93
2019-05-19T20:47:16.272Z,22.63
2019-05-19T20:49:45.407Z,24.30
2019-05-19T20:52:14.514Z,22.33
2019-05-19T20:54:43.593Z,22.13
2019-05-19T20:57:12.514Z,24.93
2019-05-19T21:00:00.701Z,23.80
2019-05-19T21:02:32.920Z,21.60
2019-05-19T21:05:02.014Z,25.30
2019-05-19T21:07:31.292Z,28.57
2019-05-19T21:10:00.408Z,26.03
2019-05-19T21:12:29.428Z,31.20
2019-05-19T21:15:17.604Z,24.63
2019-05-19T21:17:46.634Z,25.20
2019-05-19T21:20:15.787Z,25.93
2019-05-19T21:22:44.880Z,20.73
2019-05-19T21:25:13.996Z,18.60
2019-05-19T21:27:43.124Z,21.30
2019-05-19T21:30:12.372Z,23.53
2019-05-19T21:32:41.612Z,23.17
2019-05-19T21:35:10.696Z,20.57
2019-05-19T21:37:39.764Z,22.50
2019-05-19T21:40:09.151Z,22.27
2019-05-19T21:42:38.200Z,19.10
2019-05-19T21:45:07.774Z,20.80
2019-05-19T21:47:36.762Z,21.57
2019-05-19T21:50:06.551Z,22.10
2019-05-19T21:52:35.728Z,21.23
2019-05-19T21:55:05.204Z,22.03
2019-05-19T21:57:34.260Z,23.57
2019-05-19T22:00:03.639Z,23.00
2019-05-19T22:02:32.787Z,25.63
2019-05-19T22:05:02.025Z,23.20
2019-05-19T22:07:36.696Z,24.53
2019-05-19T22:10:06.134Z,26.67
2019-05-19T22:12:35.241Z,25.07
2019-05-19T22:15:04.373Z,25.60
2019-05-19T22:17:33.546Z,24.93
2019-05-19T22:20:02.653Z,25.80
2019-05-19T22:22:31.656Z,24.33
2019-05-19T22:25:00.768Z,24.03
2019-05-19T22:27:29.836Z,25.07
2019-05-19T22:29:59.023Z,24.93
2019-05-19T22:32:47.172Z,27.37
2019-05-19T22:35:16.445Z,26.07
2019-05-19T22:37:45.564Z,26.70
2019-05-19T22:40:14.956Z,23.03
2019-05-19T22:42:44.019Z,24.10
2019-05-19T22:45:32.287Z,23.20
2019-05-19T22:48:03.023Z,23.37
2019-05-19T22:50:32.089Z,24.90
2019-05-19T22:53:01.137Z,23.40
2019-05-19T22:55:30.223Z,23.97
2019-05-19T22:57:59.217Z,23.83
2019-05-19T23:00:28.261Z,27.13
2019-05-19T23:02:57.196Z,26.93
2019-05-19T23:05:26.237Z,24.53
2019-05-19T23:07:55.361Z,27.00
2019-05-19T23:10:24.560Z,28.97
2019-05-19T23:12:53.639Z,26.70
2019-05-19T23:15:23.060Z,26.27
2019-05-19T23:17:52.146Z,25.43
2019-05-19T23:20:21.227Z,23.17
2019-05-19T23:22:50.516Z,23.83
2019-05-19T23:25:19.589Z,26.03
2019-05-19T23:27:48.694Z,26.93
2019-05-19T23:30:17.803Z,28.40
2019-05-19T23:32:46.864Z,26.37
2019-05-19T23:35:15.957Z,26.37
2019-05-19T23:37:45.128Z,31.60
2019-05-19T23:40:14.220Z,29.97
2019-05-19T23:43:02.681Z,30.57
2019-05-19T23:45:32.285Z,31.43
2019-05-19T23:48:01.251Z,32.60
2019-05-19T23:50:30.312Z,37.97
2019-05-19T23:52:59.449Z,36.20
2019-05-19T23:55:28.624Z,35.83
2019-05-19T23:57:57.637Z,36.10
